Time;durP1;ratioP1;P1;durP2;ratioP2;P2;SDS_P1;SDS_P2;PMS_P1;PMS_P2;Temp;Humidity;BMP_temperature;BMP_pressure;BME280_temperature;BME280_humidity;BME280_pressure;Samples;Min_cycle;Max_cycle;Signal;HPM_P1;HPM_P2
2024/01/22 00:00:35;;;;;;;7.85;5.65;;;20.20;50.60;;;;;;5080165;28;20134;-67
2024/01/22 00:03:01;;;;;;;7.85;5.30;;;20.10;50.60;;;;;;5078761;28;20031;-68
2024/01/22 00:05:27;;;;;;;8.57;5.53;;;20.10;50.50;;;;;;5060310;28;20043;-68
2024/01/22 00:07:52;;;;;;;8.20;5.80;;;20.10;50.60;;;;;;5079540;28;20085;-68
2024/01/22 00:10:18;;;;;;;7.53;5.25;;;20.10;50.50;;;;;;5078811;28;20024;-69
2024/01/22 00:12:44;;;;;;;8.25;5.13;;;20.10;50.50;;;;;;5081792;28;20214;-70
2024/01/22 00:15:09;;;;;;;7.97;5.22;;;20.00;50.50;;;;;;5078445;28;20016;-70
2024/01/22 00:17:35;;;;;;;7.60;5.30;;;20.10;50.60;;;;;;5077664;28;20480;-70
2024/01/22 00:20:02;;;;;;;6.82;5.03;;;20.10;50.60;;;;;;5077304;28;20029;-70
2024/01/22 00:22:28;;;;;;;7.82;5.32;;;20.00;50.50;;;;;;5076405;28;20395;-70
2024/01/22 00:24:53;;;;;;;8.15;5.30;;;20.00;50.50;;;;;;5079836;28;20111;-70
2024/01/22 00:27:19;;;;;;;8.43;4.93;;;20.00;50.60;;;;;;5079700;28;20032;-70
2024/01/22 00:29:44;;;;;;;7.80;5.20;;;20.00;50.50;;;;;;5078515;28;20028;-70
2024/01/22 00:32:10;;;;;;;7.65;4.97;;;20.00;50.50;;;;;;5078829;28;20102;-70
2024/01/22 00:34:36;;;;;;;7.45;5.10;;;20.00;50.60;;;;;;5076763;28;20024;-70
2024/01/22 00:37:01;;;;;;;6.63;4.85;;;20.00;50.50;;;;;;5069209;28;20035;-70
2024/01/22 00:39:27;;;;;;;8.73;5.60;;;20.00;50.50;;;;;;5077968;28;20107;-70
2024/01/22 00:41:52;;;;;;;8.70;5.00;;;20.00;50.50;;;;;;5074695;28;20051;-69
2024/01/22 00:44:18;;;;;;;7.47;5.13;;;20.00;50.50;;;;;;5058256;28;20576;-70
2024/01/22 00:46:44;;;;;;;6.68;4.75;;;19.90;50.50;;;;;;5077649;28;20139;-69
2024/01/22 00:49:09;;;;;;;7.25;4.72;;;19.90;50.50;;;;;;5077990;28;20448;-69
2024/01/22 00:51:37;;;;;;;6.90;4.85;;;19.90;50.50;;;;;;5076467;28;20028;-69
2024/01/22 00:54:02;;;;;;;7.40;4.60;;;19.90;50.50;;;;;;5078220;28;20062;-69
2024/01/22 00:56:28;;;;;;;6.28;4.43;;;19.90;50.50;;;;;;5080282;28;20024;-69
2024/01/22 00:58:53;;;;;;;6.95;4.85;;;19.90;50.50;;;;;;5080583;28;20033;-69
2024/01/22 01:01:19;;;;;;;7.40;4.05;;;19.90;50.50;;;;;;5078844;28;20051;-69
2024/01/22 01:03:44;;;;;;;7.10;4.90;;;19.90;50.50;;;;;;5079673;28;20025;-69
2024/01/22 01:06:10;;;;;;;6.78;4.53;;;19.90;50.50;;;;;;5060818;28;20028;-69
2024/01/22 01:08:36;;;;;;;6.32;4.40;;;19.90;50.50;;;;;;5097650;28;20496;-69
2024/01/22 01:11:01;;;;;;;6.07;4.15;;;19.90;50.50;;;;;;5081653;28;20047;-64
2024/01/22 01:13:27;;;;;;;7.40;4.78;;;19.80;50.40;;;;;;5062640;28;20154;-64
2024/01/22 01:15:53;;;;;;;7.28;4.70;;;19.90;50.50;;;;;;5081673;28;20256;-64
2024/01/22 01:18:18;;;;;;;6.72;4.30;;;19.80;50.40;;;;;;5063654;28;20028;-64
2024/01/22 01:20:44;;;;;;;7.03;4.53;;;19.80;50.40;;;;;;5080497;28;20048;-64
2024/01/22 01:23:09;;;;;;;6.80;4.43;;;19.80;50.40;;;;;;5083275;28;20025;-65
2024/01/22 01:25:36;;;;;;;6.28;4.05;;;19.80;50.50;;;;;;5081444;28;20513;-63
2024/01/22 01:28:02;;;;;;;7.65;4.55;;;19.80;50.40;;;;;;5081259;28;20575;-65
2024/01/22 01:30:28;;;;;;;5.82;4.13;;;19.80;50.40;;;;;;5062892;28;20040;-63
2024/01/22 01:32:53;;;;;;;6.28;4.38;;;19.80;50.50;;;;;;5082094;28;20537;-64
2024/01/22 01:35:19;;;;;;;5.82;3.90;;;19.80;50.40;;;;;;5080424;28;20012;-63
2024/01/22 01:37:45;;;;;;;5.95;4.20;;;19.70;50.40;;;;;;5081067;28;20492;-63
2024/01/22 01:40:11;;;;;;;6.60;4.38;;;19.80;50.50;;;;;;5081430;28;20368;-65
2024/01/22 01:42:40;;;;;;;6.25;4.00;;;19.70;50.40;;;;;;5081945;28;20039;-66
2024/01/22 01:45:07;;;;;;;5.93;4.10;;;19.70;50.40;;;;;;5081572;28;20106;-64
2024/01/22 01:47:32;;;;;;;5.50;3.90;;;19.70;50.40;;;;;;5084259;28;20365;-63
2024/01/22 01:49:58;;;;;;;5.32;3.83;;;19.70;50.40;;;;;;5080008;28;20035;-66
2024/01/22 01:52:24;;;;;;;4.80;3.50;;;19.70;50.40;;;;;;5080710;28;20056;-64
2024/01/22 01:54:51;;;;;;;5.80;3.90;;;19.70;50.40;;;;;;5079262;28;20387;-64
2024/01/22 01:57:20;;;;;;;5.45;4.25;;;19.70;51.00;;;;;;5081995;28;20491;-64
2024/01/22 01:59:45;;;;;;;6.10;3.92;;;19.60;50.40;;;;;;5080758;28;20069;-64
2024/01/22 02:02:13;;;;;;;5.63;3.92;;;19.70;50.40;;;;;;5081715;28;20056;-63
2024/01/22 02:04:39;;;;;;;5.30;3.63;;;19.70;50.40;;;;;;5081898;28;20032;-63
2024/01/22 02:07:04;;;;;;;5.72;3.63;;;19.60;50.40;;;;;;5078825;28;20786;-64
2024/01/22 02:09:46;;;;;;;5.28;3.80;;;19.60;50.40;;;;;;5082549;28;20024;-66
2024/01/22 02:12:12;;;;;;;5.03;3.63;;;19.60;50.40;;;;;;5081246;28;20157;-65
2024/01/22 02:14:38;;;;;;;4.53;3.40;;;19.60;50.40;;;;;;5080840;28;20110;-65
2024/01/22 02:17:03;;;;;;;5.82;3.95;;;19.60;50.40;;;;;;5081561;28;20033;-65
2024/01/22 02:19:30;;;;;;;5.25;3.85;;;19.60;50.50;;;;;;5079426;28;20908;-64
2024/01/22 02:21:55;;;;;;;4.85;3.22;;;19.60;50.40;;;;;;5076996;28;20031;-64
2024/01/22 02:24:21;;;;;;;5.00;3.53;;;19.60;50.50;;;;;;5080774;28;20043;-63
2024/01/22 02:26:47;;;;;;;5.72;3.60;;;19.50;50.40;;;;;;5081453;28;20523;-64
2024/01/22 02:29:12;;;;;;;5.05;3.58;;;19.60;50.40;;;;;;5082390;28;20037;-64
2024/01/22 02:31:38;;;;;;;5.85;3.40;;;19.60;50.50;;;;;;5081169;28;20490;-64
2024/01/22 02:34:04;;;;;;;5.00;3.55;;;19.60;50.40;;;;;;5081902;28;20028;-65
2024/01/22 02:36:29;;;;;;;4.80;3.35;;;19.50;50.40;;;;;;5078671;28;20027;-64
2024/01/22 02:38:55;;;;;;;5.57;3.67;;;19.60;50.50;;;;;;5080557;28;20115;-64
2024/01/22 02:41:20;;;;;;;5.18;3.40;;;19.50;50.40;;;;;;5081483;28;20307;-64
2024/01/22 02:43:46;;;;;;;4.43;3.20;;;19.50;50.90;;;;;;5082178;28;20034;-63
2024/01/22 02:46:12;;;;;;;5.60;3.65;;;19.50;50.50;;;;;;5080196;28;20060;-65
2024/01/22 02:48:37;;;;;;;5.35;3.50;;;19.50;50.50;;;;;;5080207;28;20095;-65
2024/01/22 02:51:08;;;;;;;5.57;3.42;;;19.50;50.50;;;;;;5077490;28;20134;-64
2024/01/22 02:53:34;;;;;;;4.80;3.53;;;19.40;50.50;;;;;;5070034;28;20024;-64
2024/01/22 02:55:59;;;;;;;5.43;3.38;;;19.40;50.50;;;;;;5063380;28;20031;-63
2024/01/22 02:58:25;;;;;;;4.80;3.40;;;19.40;50.50;;;;;;5079415;28;20451;-64
2024/01/22 03:00:50;;;;;;;4.80;3.40;;;19.40;50.50;;;;;;5079255;28;20090;-64
2024/01/22 03:03:16;;;;;;;4.85;3.22;;;19.40;50.50;;;;;;5080910;28;20487;-65
2024/01/22 03:05:41;;;;;;;4.97;3.45;;;19.40;50.50;;;;;;5078454;28;20033;-64
2024/01/22 03:08:07;;;;;;;4.47;3.00;;;19.40;50.50;;;;;;5080295;28;20028;-64
2024/01/22 03:10:33;;;;;;;4.90;3.08;;;19.40;50.50;;;;;;5080282;28;20111;-64
2024/01/22 03:12:58;;;;;;;4.28;3.13;;;19.40;50.60;;;;;;5079685;28;20093;-63
2024/01/22 03:15:24;;;;;;;5.05;3.50;;;19.40;51.10;;;;;;5078735;28;20028;-64
2024/01/22 03:17:50;;;;;;;4.78;3.03;;;19.40;50.60;;;;;;5078388;28;20032;-63
2024/01/22 03:20:17;;;;;;;4.45;3.10;;;19.30;50.50;;;;;;5078475;28;20034;-67
2024/01/22 03:22:42;;;;;;;4.60;3.13;;;19.40;50.60;;;;;;5077424;28;20383;-68
2024/01/22 03:25:08;;;;;;;4.63;3.10;;;19.30;51.10;;;;;;5079183;28;20041;-68
2024/01/22 03:27:34;;;;;;;5.20;3.13;;;19.40;50.60;;;;;;5080818;28;20028;-68
2024/01/22 03:29:59;;;;;;;4.53;3.10;;;19.30;50.60;;;;;;5078697;28;20036;-68
2024/01/22 03:32:27;;;;;;;4.53;3.15;;;19.30;50.60;;;;;;5079417;28;20059;-68
2024/01/22 03:34:52;;;;;;;4.60;3.40;;;19.30;50.60;;;;;;5080522;28;20498;-68
2024/01/22 03:37:18;;;;;;;4.40;3.33;;;19.30;50.60;;;;;;5076858;28;20025;-68
2024/01/22 03:39:43;;;;;;;3.90;3.00;;;19.30;50.60;;;;;;5069454;28;20032;-65
2024/01/22 03:42:11;;;;;;;4.80;3.20;;;19.30;50.60;;;;;;5078596;28;20028;-66
2024/01/22 03:44:38;;;;;;;5.10;3.25;;;19.30;50.60;;;;;;5079901;28;20060;-66
2024/01/22 03:47:04;;;;;;;4.65;3.10;;;19.30;50.50;;;;;;5079818;28;20887;-66
2024/01/22 03:49:29;;;;;;;4.50;3.20;;;19.30;50.60;;;;;;5079470;28;20059;-66
2024/01/22 03:51:55;;;;;;;4.07;2.78;;;19.30;50.60;;;;;;5079154;28;20051;-65
2024/01/22 03:54:20;;;;;;;4.50;3.08;;;19.30;50.60;;;;;;5080652;28;20895;-65
2024/01/22 03:56:46;;;;;;;4.75;2.75;;;19.30;50.60;;;;;;5078189;28;20044;-65
2024/01/22 03:59:11;;;;;;;4.03;2.90;;;19.20;50.50;;;;;;5077965;28;20027;-65
2024/01/22 04:01:37;;;;;;;4.07;2.95;;;19.30;50.60;;;;;;5070271;28;20464;-65
2024/01/22 04:04:03;;;;;;;4.82;3.15;;;19.20;50.60;;;;;;5078456;28;20020;-66
2024/01/22 04:06:29;;;;;;;3.78;2.80;;;19.30;50.60;;;;;;5078117;28;20017;-66
2024/01/22 04:08:55;;;;;;;3.90;2.80;;;19.20;50.60;;;;;;5069309;28;20024;-65
2024/01/22 04:11:20;;;;;;;4.15;2.65;;;19.20;50.50;;;;;;5069905;28;20123;-65
2024/01/22 04:13:46;;;;;;;4.90;2.67;;;19.20;50.50;;;;;;5080152;28;20056;-65
2024/01/22 04:16:15;;;;;;;4.15;2.95;;;19.20;50.60;;;;;;5069143;28;20025;-65
2024/01/22 04:18:42;;;;;;;4.22;2.95;;;19.20;50.60;;;;;;5080664;28;20033;-65
2024/01/22 04:21:08;;;;;;;4.05;2.85;;;19.20;50.60;;;;;;5078581;28;20034;-65
2024/01/22 04:23:34;;;;;;;4.38;3.10;;;19.20;50.60;;;;;;5079158;28;20953;-65
2024/01/22 04:26:01;;;;;;;4.13;2.85;;;19.20;50.70;;;;;;5077971;28;20459;-66
2024/01/22 04:28:27;;;;;;;3.83;2.63;;;19.20;50.70;;;;;;5095041;28;20381;-66
2024/01/22 04:30:52;;;;;;;4.45;2.80;;;19.20;51.20;;;;;;5077739;28;20035;-66
2024/01/22 04:33:18;;;;;;;4.28;2.78;;;19.20;50.70;;;;;;5069359;28;20138;-66
2024/01/22 04:35:43;;;;;;;3.63;2.70;;;19.10;50.60;;;;;;5079067;28;20400;-65
2024/01/22 04:38:09;;;;;;;4.53;2.67;;;19.20;50.70;;;;;;5078019;28;20063;-66
2024/01/22 04:40:35;;;;;;;3.28;2.22;;;19.10;50.70;;;;;;5076992;28;20433;-68
2024/01/22 04:43:00;;;;;;;3.72;2.60;;;19.10;50.70;;;;;;5079793;28;20043;-68
2024/01/22 04:45:26;;;;;;;3.63;2.58;;;19.10;50.70;;;;;;5077733;28;20040;-67
2024/01/22 04:47:52;;;;;;;3.78;2.80;;;19.10;50.70;;;;;;5078234;28;20037;-68
2024/01/22 04:50:17;;;;;;;3.90;2.63;;;19.10;50.70;;;;;;5079944;28;20032;-65
2024/01/22 04:52:43;;;;;;;4.22;2.97;;;19.10;50.70;;;;;;5077622;28;20225;-65
2024/01/22 04:55:09;;;;;;;3.75;2.50;;;19.10;50.70;;;;;;5079940;28;20024;-66
2024/01/22 04:57:34;;;;;;;3.75;2.58;;;19.10;50.70;;;;;;5059306;28;20024;-64
2024/01/22 05:00:00;;;;;;;3.20;2.15;;;19.10;50.70;;;;;;5076443;28;20036;-64
2024/01/22 05:02:28;;;;;;;3.67;2.60;;;19.10;50.80;;;;;;5078923;28;20476;-63
2024/01/22 05:04:56;;;;;;;4.25;2.70;;;19.10;50.70;;;;;;5078298;28;20538;-64
2024/01/22 05:07:25;;;;;;;3.92;2.40;;;19.10;50.80;;;;;;5077578;28;20035;-65
2024/01/22 05:09:57;;;;;;;4.20;2.55;;;19.10;50.80;;;;;;5079582;28;20028;-64
2024/01/22 05:12:23;;;;;;;3.50;2.58;;;19.10;50.80;;;;;;5077390;28;20049;-64
2024/01/22 05:14:49;;;;;;;4.07;2.65;;;19.10;50.80;;;;;;5076635;28;20071;-64
2024/01/22 05:17:15;;;;;;;3.42;2.38;;;19.10;50.80;;;;;;5076194;28;20056;-64
2024/01/22 05:19:40;;;;;;;3.85;2.50;;;19.10;50.80;;;;;;5077043;28;20032;-64
2024/01/22 05:22:06;;;;;;;3.05;2.13;;;19.10;50.80;;;;;;5077337;28;20392;-64
2024/01/22 05:24:31;;;;;;;4.30;2.35;;;19.10;50.80;;;;;;5079816;28;20043;-63
2024/01/22 05:26:57;;;;;;;3.83;2.33;;;19.10;50.80;;;;;;5078666;28;20047;-63
2024/01/22 05:29:22;;;;;;;4.10;2.78;;;19.10;50.80;;;;;;5078821;28;20036;-64
2024/01/22 05:31:49;;;;;;;3.17;2.20;;;19.10;50.90;;;;;;5078122;28;20103;-64
2024/01/22 05:34:14;;;;;;;3.72;2.42;;;19.10;50.90;;;;;;5078583;28;20473;-64
2024/01/22 05:36:40;;;;;;;3.20;2.28;;;19.10;50.90;;;;;;5078062;28;20023;-66
2024/01/22 05:39:05;;;;;;;3.40;2.20;;;19.10;50.90;;;;;;5078742;28;20047;-64
2024/01/22 05:41:31;;;;;;;3.00;2.20;;;19.10;51.40;;;;;;5078927;28;20028;-68
2024/01/22 05:43:57;;;;;;;3.22;2.35;;;19.10;50.90;;;;;;5078393;28;20413;-68
2024/01/22 05:46:22;;;;;;;3.30;2.30;;;19.10;50.90;;;;;;5078461;28;20021;-68
2024/01/22 05:48:48;;;;;;;4.05;2.60;;;19.10;50.90;;;;;;5077615;28;20553;-68
2024/01/22 05:51:14;;;;;;;4.10;2.47;;;19.10;50.90;;;;;;5079136;28;20572;-66
2024/01/22 05:53:40;;;;;;;3.50;2.30;;;19.10;50.90;;;;;;5077911;28;20029;-66
2024/01/22 05:56:06;;;;;;;3.67;2.17;;;19.10;51.00;;;;;;5081550;28;20494;-66
2024/01/22 05:58:32;;;;;;;3.53;2.47;;;19.10;51.00;;;;;;5080472;28;20016;-66
2024/01/22 06:00:57;;;;;;;3.47;2.30;;;19.10;51.00;;;;;;5062507;28;20388;-65
2024/01/22 06:03:23;;;;;;;4.32;2.65;;;19.10;50.90;;;;;;5081385;28;20187;-65
2024/01/22 06:05:49;;;;;;;3.90;2.85;;;19.10;51.00;;;;;;5081013;28;20039;-66
2024/01/22 06:08:14;;;;;;;3.63;2.30;;;19.10;51.50;;;;;;5079401;28;20024;-66
2024/01/22 06:10:40;;;;;;;3.13;2.15;;;19.10;51.00;;;;;;5080669;28;20029;-66
2024/01/22 06:13:05;;;;;;;3.20;2.05;;;19.10;51.00;;;;;;5062504;28;20117;-66
2024/01/22 06:15:31;;;;;;;3.97;2.15;;;19.00;50.90;;;;;;5062682;28;20028;-66
2024/01/22 06:17:57;;;;;;;3.28;2.22;;;19.10;51.00;;;;;;5081007;28;20043;-66
2024/01/22 06:20:22;;;;;;;3.13;2.20;;;19.10;51.00;;;;;;5080423;28;20039;-66
2024/01/22 06:22:48;;;;;;;3.55;2.33;;;19.00;50.90;;;;;;5093798;28;20038;-65
2024/01/22 06:25:14;;;;;;;3.30;2.10;;;19.00;50.90;;;;;;5079811;28;20032;-66
2024/01/22 06:27:40;;;;;;;2.85;1.90;;;19.00;50.90;;;;;;5081460;28;20107;-66
2024/01/22 06:30:06;;;;;;;3.30;2.13;;;19.00;51.00;;;;;;5080200;28;20060;-66
2024/01/22 06:32:33;;;;;;;3.13;2.22;;;19.00;51.00;;;;;;5080068;28;20050;-65
2024/01/22 06:34:58;;;;;;;3.28;2.35;;;19.00;51.00;;;;;;5079115;28;20031;-65
2024/01/22 06:37:27;;;;;;;3.22;2.20;;;19.10;51.00;;;;;;5081503;28;20028;-66
2024/01/22 06:39:52;;;;;;;3.00;2.00;;;19.00;51.00;;;;;;5080470;28;20028;-66
2024/01/22 06:42:18;;;;;;;3.10;2.10;;;19.00;51.00;;;;;;5081132;28;20123;-65
2024/01/22 06:44:44;;;;;;;3.70;2.20;;;19.00;51.00;;;;;;5080860;28;20059;-65
2024/01/22 06:47:09;;;;;;;2.72;2.00;;;19.00;51.30;;;;;;5082369;28;20448;-65
2024/01/22 06:49:35;;;;;;;4.30;1.90;;;19.10;51.60;;;;;;5078828;28;20064;-66
2024/01/22 06:52:01;;;;;;;2.60;1.77;;;19.10;51.50;;;;;;5082527;28;20486;-65
2024/01/22 06:54:26;;;;;;;2.35;1.60;;;19.10;52.50;;;;;;5079876;28;20024;-66
2024/01/22 06:56:52;;;;;;;2.75;1.80;;;19.20;53.10;;;;;;5079147;28;20024;-65
2024/01/22 06:59:17;;;;;;;2.75;1.52;;;19.40;53.30;;;;;;5071093;28;20113;-63
2024/01/22 07:01:43;;;;;;;2.22;1.40;;;19.50;52.80;;;;;;5081967;28;20131;-64
2024/01/22 07:04:08;;;;;;;2.50;1.55;;;19.70;52.60;;;;;;5062935;28;20024;-63
2024/01/22 07:06:35;;;;;;;2.40;1.50;;;20.00;52.60;;;;;;5081179;28;20166;-64
2024/01/22 07:09:01;;;;;;;2.40;1.45;;;20.10;52.40;;;;;;5067949;28;20043;-63
2024/01/22 07:11:26;;;;;;;2.10;1.20;;;20.30;52.30;;;;;;5077919;28;20381;-68
2024/01/22 07:13:52;;;;;;;1.88;1.17;;;20.40;52.70;;;;;;5079934;28;20095;-68
2024/01/22 07:16:18;;;;;;;2.78;1.45;;;20.50;52.00;;;;;;5060841;28;20115;-68
2024/01/22 07:18:43;;;;;;;2.53;1.50;;;20.50;51.90;;;;;;5080113;28;20244;-68
2024/01/22 07:21:09;;;;;;;2.30;1.33;;;20.50;52.00;;;;;;5080499;28;20537;-68
2024/01/22 07:23:34;;;;;;;1.95;1.38;;;20.50;52.10;;;;;;5077542;28;20070;-68
2024/01/22 07:26:00;;;;;;;2.20;1.50;;;20.40;52.20;;;;;;5080418;28;20496;-68
2024/01/22 07:28:27;;;;;;;2.30;1.33;;;20.40;52.30;;;;;;5077620;28;20039;-68
2024/01/22 07:30:52;;;;;;;2.45;1.40;;;20.40;52.50;;;;;;5079849;28;20039;-69
2024/01/22 07:33:18;;;;;;;2.03;1.30;;;20.60;52.50;;;;;;5078607;28;20024;-68
2024/01/22 07:35:44;;;;;;;2.75;1.55;;;20.70;52.30;;;;;;5079803;28;20044;-68
2024/01/22 07:38:09;;;;;;;1.92;1.27;;;20.70;52.30;;;;;;5078854;28;20020;-68
2024/01/22 07:40:35;;;;;;;2.30;1.40;;;20.60;52.80;;;;;;5079046;28;20032;-68
2024/01/22 07:43:02;;;;;;;2.40;1.33;;;20.60;52.40;;;;;;5079545;28;20111;-68
2024/01/22 07:45:27;;;;;;;1.90;1.20;;;20.80;53.50;;;;;;5078271;28;20071;-68
2024/01/22 07:47:53;;;;;;;1.90;1.20;;;20.90;52.40;;;;;;5076088;28;20067;-68
2024/01/22 07:50:20;;;;;;;2.20;1.40;;;21.00;52.90;;;;;;5078000;28;20477;-68
2024/01/22 07:52:45;;;;;;;2.05;1.38;;;20.90;52.90;;;;;;5078948;28;20028;-68
2024/01/22 07:55:13;;;;;;;1.40;1.05;;;20.90;52.90;;;;;;5076721;28;20029;-67
2024/01/22 07:57:38;;;;;;;1.80;1.10;;;20.90;53.00;;;;;;5081301;28;20027;-67
2024/01/22 08:00:11;;;;;;;1.88;1.30;;;20.90;53.00;;;;;;5079643;28;20041;-68
2024/01/22 08:02:38;;;;;;;1.73;1.15;;;20.90;53.00;;;;;;5079181;28;20106;-68
2024/01/22 08:05:05;;;;;;;1.80;1.20;;;20.90;53.00;;;;;;5079688;28;20042;-68
2024/01/22 08:07:30;;;;;;;1.55;1.20;;;20.90;53.00;;;;;;5078528;28;20024;-68
2024/01/22 08:09:56;;;;;;;2.13;1.50;;;20.90;53.00;;;;;;5076951;28;20028;-68
2024/01/22 08:12:22;;;;;;;1.95;1.30;;;20.90;53.00;;;;;;5078393;28;20035;-68
2024/01/22 08:14:47;;;;;;;1.85;1.30;;;20.90;53.00;;;;;;5076960;28;20031;-68
2024/01/22 08:17:13;;;;;;;2.10;1.27;;;20.90;53.00;;;;;;5077358;28;20020;-67
2024/01/22 08:19:38;;;;;;;1.48;1.10;;;21.00;53.00;;;;;;5079256;28;20028;-68
2024/01/22 08:22:04;;;;;;;2.03;1.30;;;21.00;53.10;;;;;;5077907;28;20118;-68
2024/01/22 08:24:31;;;;;;;1.80;1.13;;;21.00;53.20;;;;;;5077370;28;20411;-67
2024/01/22 08:26:57;;;;;;;2.20;1.30;;;21.00;53.20;;;;;;5078453;28;20529;-67
2024/01/22 08:29:22;;;;;;;2.60;1.60;;;21.00;51.80;;;;;;5076856;28;20036;-67
2024/01/22 08:31:48;;;;;;;2.30;1.58;;;21.00;51.00;;;;;;5061051;28;20020;-67
2024/01/22 08:34:14;;;;;;;2.50;1.50;;;20.90;50.20;;;;;;5078301;28;20032;-68
2024/01/22 08:36:39;;;;;;;2.15;1.45;;;21.00;49.90;;;;;;5077120;28;20079;-67
2024/01/22 08:39:05;;;;;;;2.67;1.70;;;20.90;49.70;;;;;;5076942;28;20108;-68
2024/01/22 08:41:31;;;;;;;2.40;1.70;;;20.90;49.60;;;;;;5077151;28;20032;-68
2024/01/22 08:44:02;;;;;;;2.28;1.50;;;20.80;49.50;;;;;;5078789;28;20020;-68
2024/01/22 08:46:29;;;;;;;2.80;1.52;;;20.80;49.40;;;;;;5075599;28;20495;-68
2024/01/22 08:48:55;;;;;;;1.80;1.30;;;20.70;49.40;;;;;;5068727;28;20453;-68
2024/01/22 08:51:20;;;;;;;2.35;1.63;;;20.70;49.30;;;;;;5069039;28;20036;-67
2024/01/22 08:53:46;;;;;;;2.10;1.33;;;20.70;49.30;;;;;;5067163;28;20028;-68
2024/01/22 08:56:13;;;;;;;2.13;1.50;;;20.70;49.40;;;;;;5077381;28;20426;-69
2024/01/22 08:58:39;;;;;;;1.98;1.30;;;20.70;49.40;;;;;;5078829;28;20025;-68
2024/01/22 09:01:06;;;;;;;3.05;1.40;;;20.70;49.40;;;;;;5078077;28;20143;-68
2024/01/22 09:03:32;;;;;;;2.00;1.30;;;20.70;49.40;;;;;;5078958;28;20103;-68
2024/01/22 09:05:59;;;;;;;2.10;1.35;;;20.70;49.30;;;;;;5079579;28;20031;-68
2024/01/22 09:08:25;;;;;;;1.77;1.20;;;20.60;49.30;;;;;;5078187;28;20052;-67
2024/01/22 09:10:51;;;;;;;2.80;1.50;;;20.60;49.80;;;;;;5079229;28;20090;-64
2024/01/22 09:13:17;;;;;;;2.20;1.30;;;20.60;49.30;;;;;;5080342;28;20029;-63
2024/01/22 09:15:42;;;;;;;2.47;1.38;;;20.60;49.30;;;;;;5080379;28;20326;-63
2024/01/22 09:18:08;;;;;;;2.65;1.45;;;20.60;49.20;;;;;;5067992;28;20017;-64
2024/01/22 09:20:33;;;;;;;2.03;1.40;;;20.60;49.20;;;;;;5077868;28;20499;-63
2024/01/22 09:23:01;;;;;;;1.98;1.30;;;20.60;49.30;;;;;;5068632;28;20075;-63
2024/01/22 09:25:26;;;;;;;2.20;1.30;;;20.60;49.30;;;;;;5076161;28;20020;-63
2024/01/22 09:27:52;;;;;;;2.30;1.40;;;20.60;49.30;;;;;;5077015;28;20041;-64
2024/01/22 09:30:18;;;;;;;1.98;1.30;;;20.60;49.30;;;;;;5072561;28;20032;-68
2024/01/22 09:32:43;;;;;;;1.85;1.23;;;20.60;49.30;;;;;;5083292;28;20032;-68
2024/01/22 09:35:09;;;;;;;2.17;1.27;;;20.60;49.30;;;;;;5080563;28;20035;-68
2024/01/22 09:37:34;;;;;;;1.70;1.17;;;20.60;49.80;;;;;;5082194;28;20065;-67
2024/01/22 09:40:00;;;;;;;2.33;1.30;;;20.60;49.30;;;;;;5081290;28;20029;-67
2024/01/22 09:42:30;;;;;;;2.15;1.40;;;20.60;49.30;;;;;;5083496;28;20035;-68
2024/01/22 09:44:57;;;;;;;1.83;1.23;;;20.60;49.30;;;;;;5082457;28;20025;-68
2024/01/22 09:47:23;;;;;;;2.30;1.30;;;20.60;49.30;;;;;;5081228;28;20445;-68
2024/01/22 09:49:49;;;;;;;1.70;1.15;;;20.60;49.30;;;;;;5077781;28;20082;-67
2024/01/22 09:52:16;;;;;;;1.80;1.30;;;20.60;49.30;;;;;;5080961;28;20021;-68
2024/01/22 09:54:43;;;;;;;2.20;1.30;;;20.60;49.30;;;;;;5080842;28;20035;-68
2024/01/22 09:57:18;;;;;;;1.83;1.30;;;20.60;49.30;;;;;;5081365;28;20467;-69
2024/01/22 09:59:44;;;;;;;2.10;1.33;;;20.60;49.40;;;;;;5080734;28;20601;-69
2024/01/22 10:02:18;;;;;;;1.95;1.10;;;20.60;49.40;;;;;;5081200;28;20029;-68
2024/01/22 10:04:44;;;;;;;1.80;1.27;;;20.60;49.40;;;;;;5079381;28;20364;-68
2024/01/22 10:07:13;;;;;;;2.50;1.60;;;20.60;49.40;;;;;;5080890;28;20028;-68
2024/01/22 10:09:39;;;;;;;2.22;1.30;;;20.60;49.50;;;;;;5079130;28;20028;-68
2024/01/22 10:12:05;;;;;;;2.35;1.35;;;20.60;49.50;;;;;;5081317;28;20042;-68
2024/01/22 10:14:34;;;;;;;1.92;1.27;;;20.60;49.40;;;;;;5079325;28;20028;-68
2024/01/22 10:17:26;;;;;;;;;;;20.60;49.40;;;;;;5081169;28;20712;-69
2024/01/22 10:19:54;;;;;;;1.83;1.20;;;20.60;49.30;;;;;;5072015;28;19969;-68
2024/01/22 10:22:20;;;;;;;1.80;1.23;;;20.60;49.40;;;;;;5080769;28;20028;-67
2024/01/22 10:25:00;;;;;;;2.13;1.40;;;20.60;49.40;;;;;;5065039;28;20384;-66
2024/01/22 10:27:25;;;;;;;;;;;20.60;49.90;;;;;;5082922;28;20016;-67
2024/01/22 10:29:51;;;;;;;1.73;1.10;;;20.60;49.50;;;;;;5080729;28;20611;-65
2024/01/22 10:32:23;;;;;;;1.85;1.20;;;20.60;50.00;;;;;;5080132;28;20055;-68
2024/01/22 10:34:53;;;;;;;1.60;1.23;;;20.60;50.20;;;;;;5070909;28;20035;-69
2024/01/22 10:37:19;;;;;;;1.83;1.20;;;20.60;49.40;;;;;;5082061;28;20028;-68
2024/01/22 10:39:47;;;;;;;2.20;1.40;;;20.60;49.30;;;;;;5079424;28;20037;-68
2024/01/22 10:42:15;;;;;;;1.70;1.10;;;20.60;49.50;;;;;;5080469;28;20042;-68
2024/01/22 10:44:43;;;;;;;1.58;1.10;;;20.60;49.80;;;;;;5079906;28;20572;-68
2024/01/22 10:47:11;;;;;;;2.03;1.20;;;20.60;50.00;;;;;;5080602;28;20473;-65
2024/01/22 10:49:37;;;;;;;2.35;1.35;;;20.70;50.20;;;;;;5086438;28;20024;-65
2024/01/22 10:52:04;;;;;;;2.05;1.10;;;20.70;50.50;;;;;;5079605;28;20025;-62
2024/01/22 10:54:31;;;;;;;2.10;1.30;;;20.80;50.80;;;;;;5079163;28;20019;-61
2024/01/22 10:57:03;;;;;;;2.03;1.15;;;20.80;51.10;;;;;;5080032;28;20479;-61
2024/01/22 10:59:39;;;;;;;2.15;1.20;;;20.80;51.40;;;;;;5079902;28;20395;-61
2024/01/22 11:02:15;;;;;;;1.95;1.30;;;20.90;51.60;;;;;;5083375;28;20063;-63
2024/01/22 11:04:45;;;;;;;1.95;1.10;;;20.90;51.80;;;;;;5076769;28;20035;-62
2024/01/22 11:07:12;;;;;;;1.60;1.10;;;20.90;51.90;;;;;;5079471;28;20028;-62
2024/01/22 11:09:39;;;;;;;1.58;1.08;;;21.00;52.20;;;;;;5083355;28;20043;-62
2024/01/22 11:12:12;;;;;;;1.95;1.02;;;21.00;52.30;;;;;;5087589;28;20040;-62
2024/01/22 11:14:40;;;;;;;1.50;1.10;;;21.00;52.50;;;;;;5081343;28;20494;-62
2024/01/22 11:17:06;;;;;;;1.92;1.10;;;21.00;52.50;;;;;;5081555;28;20046;-61
2024/01/22 11:19:33;;;;;;;1.70;1.00;;;21.10;52.70;;;;;;5081469;28;20036;-62
2024/01/22 11:22:00;;;;;;;1.63;1.15;;;21.10;52.70;;;;;;5080381;28;20028;-62
2024/01/22 11:24:26;;;;;;;2.67;1.20;;;21.10;52.80;;;;;;5082539;28;20020;-66
2024/01/22 11:26:51;;;;;;;2.13;1.25;;;21.10;53.00;;;;;;5078867;28;20106;-64
2024/01/22 11:29:25;;;;;;;1.55;0.90;;;21.20;53.10;;;;;;5081447;28;20119;-63
2024/01/22 11:31:50;;;;;;;1.50;1.13;;;21.20;53.10;;;;;;5079735;28;20104;-65
2024/01/22 11:34:38;;;;;;;1.65;1.05;;;21.20;53.10;;;;;;5089340;28;20433;-65
2024/01/22 11:37:04;;;;;;;1.60;0.90;;;21.20;53.20;;;;;;5093212;28;20028;-65
2024/01/22 11:39:32;;;;;;;1.65;1.10;;;21.30;53.20;;;;;;5087007;28;20024;-65
2024/01/22 11:42:20;;;;;;;1.90;1.00;;;21.30;53.20;;;;;;5080551;28;20024;-65
2024/01/22 11:44:48;;;;;;;1.77;1.23;;;21.30;51.60;;;;;;5072169;28;20670;-65
2024/01/22 11:47:15;;;;;;;1.58;1.05;;;21.20;50.30;;;;;;5081979;28;20052;-65
2024/01/22 11:49:41;;;;;;;1.50;1.10;;;21.20;49.70;;;;;;5081466;28;20020;-65
2024/01/22 11:52:10;;;;;;;1.65;1.10;;;21.10;49.90;;;;;;5076714;28;20072;-67
2024/01/22 11:54:36;;;;;;;;;;;21.10;50.20;;;;;;5078997;28;20020;-67
2024/01/22 11:57:03;;;;;;;1.67;1.10;;;21.20;50.50;;;;;;5077008;28;19912;-67
2024/01/22 11:59:29;;;;;;;1.58;1.20;;;21.20;50.70;;;;;;5081749;28;20031;-67
2024/01/22 12:02:10;;;;;;;1.80;1.10;;;21.20;50.80;;;;;;5073972;28;20029;-66
2024/01/22 12:04:36;;;;;;;1.40;1.00;;;21.20;50.90;;;;;;5061395;28;20033;-65
2024/01/22 12:07:02;;;;;;;1.80;1.10;;;21.20;51.00;;;;;;5059748;28;20468;-67
2024/01/22 12:09:34;;;;;;;1.52;1.00;;;21.30;51.20;;;;;;5060176;28;20093;-66
2024/01/22 12:12:03;;;;;;;2.15;1.10;;;21.30;51.40;;;;;;5076022;28;20115;-65
2024/01/22 12:14:29;;;;;;;1.80;1.20;;;21.30;51.50;;;;;;5077745;28;20021;-66
2024/01/22 12:17:02;;;;;;;2.25;0.93;;;21.30;51.70;;;;;;5092207;28;20024;-66
2024/01/22 12:19:27;;;;;;;1.40;0.98;;;21.40;52.00;;;;;;5078899;28;20020;-66
2024/01/22 12:21:53;;;;;;;1.58;1.08;;;21.40;52.10;;;;;;5091784;28;20076;-66
2024/01/22 12:24:19;;;;;;;1.90;1.00;;;21.40;52.10;;;;;;5079232;28;20171;-65
2024/01/22 12:26:45;;;;;;;2.20;0.90;;;21.40;52.20;;;;;;5076597;28;20512;-66
2024/01/22 12:29:24;;;;;;;2.33;1.00;;;21.40;52.30;;;;;;5077435;28;20123;-66
2024/01/22 12:32:01;;;;;;;1.38;0.90;;;21.50;52.50;;;;;;5077407;28;20047;-66
2024/01/22 12:34:27;;;;;;;1.30;1.00;;;21.50;52.60;;;;;;5079136;28;20020;-66
2024/01/22 12:36:52;;;;;;;1.33;0.80;;;21.50;52.60;;;;;;5078309;28;20471;-66
2024/01/22 12:39:21;;;;;;;1.85;1.10;;;21.50;53.30;;;;;;5078446;28;20127;-66
2024/01/22 12:41:47;;;;;;;2.03;1.00;;;21.60;53.10;;;;;;5079689;28;20016;-62
2024/01/22 12:44:15;;;;;;;3.20;0.90;;;21.60;53.30;;;;;;5076309;28;20787;-65